Amor, Minnesota
Current Conditions -  °F | °C
As of 7:14 AM on Friday 31 Oct 2014 (Local Time) from KFFM Reporting Station
Clear Clear  
Wind Chill: 18°   Ceiling: Unl
Heat Index: 18°   Visibility: 10mi
Dew Point: 16°   Wind: 3mph
Humidity: 93%   Direction: 360°N
Pressure: 30.62"   Gusts: NA
Location:  46.3166°N, 95.7183°W
Report Text: KFFM 311214Z AUTO 36003KT 10SM CLR M08/M09 A3062 RMK AO2
Loading
Personal Weather Stations






























Interactive Weather Map New forecast layout! Learn more

10-Day Weather Forecast

Advertisements
Track Severe Weather on mobile